sensor_id;sensor_type;location;lat;lon;timestamp;pressure;altitude;pressure_sealevel;temperature;humidity
34658;BME280;20865;43.312;27.152;2022-07-24T00:00:02;100398.60;;;29.40;40.97
34658;BME280;20865;43.312;27.152;2022-07-24T00:02:30;100403.59;;;29.45;39.24
34658;BME280;20865;43.312;27.152;2022-07-24T00:04:58;100410.48;;;29.49;41.29
34658;BME280;20865;43.312;27.152;2022-07-24T00:07:28;100415.14;;;29.53;42.92
34658;BME280;20865;43.312;27.152;2022-07-24T00:09:56;100415.66;;;29.52;43.93
34658;BME280;20865;43.312;27.152;2022-07-24T00:12:23;100400.61;;;29.64;43.48
34658;BME280;20865;43.312;27.152;2022-07-24T00:14:51;100394.27;;;29.72;43.55
34658;BME280;20865;43.312;27.152;2022-07-24T00:17:19;100393.55;;;29.62;43.73
34658;BME280;20865;43.312;27.152;2022-07-24T00:19:46;100398.78;;;29.81;43.43
34658;BME280;20865;43.312;27.152;2022-07-24T00:22:14;100398.08;;;29.91;43.21
34658;BME280;20865;43.312;27.152;2022-07-24T00:24:42;100392.23;;;29.90;40.03
34658;BME280;20865;43.312;27.152;2022-07-24T00:27:10;100386.39;;;29.89;39.68
34658;BME280;20865;43.312;27.152;2022-07-24T00:29:38;100391.19;;;29.83;39.75
34658;BME280;20865;43.312;27.152;2022-07-24T00:32:06;100386.53;;;29.76;39.89
34658;BME280;20865;43.312;27.152;2022-07-24T00:34:33;100394.45;;;29.75;39.80
34658;BME280;20865;43.312;27.152;2022-07-24T00:37:01;100382.92;;;29.71;39.01
34658;BME280;20865;43.312;27.152;2022-07-24T00:39:29;100382.20;;;29.65;38.96
34658;BME280;20865;43.312;27.152;2022-07-24T00:41:57;100384.72;;;29.50;39.08
34658;BME280;20865;43.312;27.152;2022-07-24T00:44:24;100383.27;;;29.34;39.19
34658;BME280;20865;43.312;27.152;2022-07-24T00:46:52;100383.37;;;29.20;39.56
34658;BME280;20865;43.312;27.152;2022-07-24T00:49:20;100381.25;;;29.06;40.05
34658;BME280;20865;43.312;27.152;2022-07-24T00:51:50;100379.55;;;29.09;40.13
34658;BME280;20865;43.312;27.152;2022-07-24T00:54:20;100376.25;;;29.01;40.23
34658;BME280;20865;43.312;27.152;2022-07-24T00:56:49;100367.44;;;28.98;40.11
34658;BME280;20865;43.312;27.152;2022-07-24T00:59:18;100373.27;;;28.72;40.31
34658;BME280;20865;43.312;27.152;2022-07-24T01:01:47;100373.34;;;28.81;40.40
34658;BME280;20865;43.312;27.152;2022-07-24T01:04:15;100359.75;;;28.79;40.09
34658;BME280;20865;43.312;27.152;2022-07-24T01:06:44;100351.95;;;28.66;40.61
34658;BME280;20865;43.312;27.152;2022-07-24T01:09:12;100355.92;;;28.72;40.71
34658;BME280;20865;43.312;27.152;2022-07-24T01:11:40;100359.07;;;28.55;41.27
34658;BME280;20865;43.312;27.152;2022-07-24T01:14:09;100352.10;;;28.65;40.90
34658;BME280;20865;43.312;27.152;2022-07-24T01:16:38;100351.37;;;28.59;40.97
34658;BME280;20865;43.312;27.152;2022-07-24T01:19:05;100355.55;;;28.63;41.02
34658;BME280;20865;43.312;27.152;2022-07-24T01:21:33;100343.22;;;28.71;40.81
34658;BME280;20865;43.312;27.152;2022-07-24T01:24:01;100337.83;;;28.61;40.50
34658;BME280;20865;43.312;27.152;2022-07-24T01:26:29;100341.43;;;28.62;39.92
34658;BME280;20865;43.312;27.152;2022-07-24T01:28:56;100337.14;;;28.59;40.05
34658;BME280;20865;43.312;27.152;2022-07-24T01:31:24;100337.95;;;28.56;40.18
34658;BME280;20865;43.312;27.152;2022-07-24T01:33:52;100338.64;;;28.54;40.30
34658;BME280;20865;43.312;27.152;2022-07-24T01:36:19;100336.53;;;28.47;40.44
34658;BME280;20865;43.312;27.152;2022-07-24T01:38:47;100340.67;;;28.52;40.43
34658;BME280;20865;43.312;27.152;2022-07-24T01:41:15;100333.27;;;28.48;40.51
34658;BME280;20865;43.312;27.152;2022-07-24T01:43:42;100327.38;;;28.39;40.62
34658;BME280;20865;43.312;27.152;2022-07-24T01:46:10;100333.24;;;28.44;40.33
34658;BME280;20865;43.312;27.152;2022-07-24T01:48:40;100328.27;;;28.43;39.82
34658;BME280;20865;43.312;27.152;2022-07-24T01:51:08;100324.06;;;28.35;39.81
34658;BME280;20865;43.312;27.152;2022-07-24T01:53:36;100318.78;;;28.20;40.07
34658;BME280;20865;43.312;27.152;2022-07-24T01:56:04;100322.05;;;28.19;40.25
34658;BME280;20865;43.312;27.152;2022-07-24T01:58:32;100315.23;;;28.06;40.59
34658;BME280;20865;43.312;27.152;2022-07-24T02:01:00;100320.64;;;28.15;40.65
34658;BME280;20865;43.312;27.152;2022-07-24T02:03:27;100317.35;;;28.12;40.73
34658;BME280;20865;43.312;27.152;2022-07-24T02:05:55;100314.27;;;28.11;40.27
34658;BME280;20865;43.312;27.152;2022-07-24T02:08:22;100310.38;;;27.99;40.27
34658;BME280;20865;43.312;27.152;2022-07-24T02:10:50;100315.28;;;27.92;40.69
34658;BME280;20865;43.312;27.152;2022-07-24T02:13:18;100315.28;;;27.92;40.69
34658;BME280;20865;43.312;27.152;2022-07-24T02:15:45;100315.59;;;27.89;41.00
34658;BME280;20865;43.312;27.152;2022-07-24T02:18:13;100319.47;;;27.82;40.36
34658;BME280;20865;43.312;27.152;2022-07-24T02:20:41;100312.52;;;27.74;40.53
34658;BME280;20865;43.312;27.152;2022-07-24T02:23:09;100312.95;;;27.79;40.64
34658;BME280;20865;43.312;27.152;2022-07-24T02:25:36;100311.45;;;27.71;40.59
34658;BME280;20865;43.312;27.152;2022-07-24T02:28:04;100311.52;;;27.61;40.64
34658;BME280;20865;43.312;27.152;2022-07-24T02:30:32;100311.52;;;27.61;40.64
34658;BME280;20865;43.312;27.152;2022-07-24T02:33:00;100302.39;;;27.57;40.80
34658;BME280;20865;43.312;27.152;2022-07-24T02:35:27;100302.39;;;27.57;40.80
34658;BME280;20865;43.312;27.152;2022-07-24T02:37:55;100301.20;;;27.55;40.88
34658;BME280;20865;43.312;27.152;2022-07-24T02:40:23;100300.19;;;27.42;41.21
34658;BME280;20865;43.312;27.152;2022-07-24T02:42:50;100300.19;;;27.42;41.21
34658;BME280;20865;43.312;27.152;2022-07-24T02:45:19;100305.84;;;27.41;41.44
34658;BME280;20865;43.312;27.152;2022-07-24T02:47:52;100305.84;;;27.41;41.44
34658;BME280;20865;43.312;27.152;2022-07-24T02:50:22;100306.23;;;27.46;41.49
34658;BME280;20865;43.312;27.152;2022-07-24T02:52:50;100308.45;;;27.46;41.35
34658;BME280;20865;43.312;27.152;2022-07-24T02:55:17;100309.58;;;27.40;41.50
34658;BME280;20865;43.312;27.152;2022-07-24T02:57:45;100298.63;;;27.26;41.39
34658;BME280;20865;43.312;27.152;2022-07-24T03:00:15;100298.63;;;27.26;41.39
34658;BME280;20865;43.312;27.152;2022-07-24T03:02:44;100311.94;;;27.35;40.85
34658;BME280;20865;43.312;27.152;2022-07-24T03:05:11;100300.12;;;27.20;41.36
34658;BME280;20865;43.312;27.152;2022-07-24T03:07:40;100299.91;;;27.31;41.38
34658;BME280;20865;43.312;27.152;2022-07-24T03:10:09;100295.83;;;27.36;41.23
34658;BME280;20865;43.312;27.152;2022-07-24T03:12:38;100294.63;;;27.34;41.12
34658;BME280;20865;43.312;27.152;2022-07-24T03:15:06;100285.89;;;27.35;40.90
34658;BME280;20865;43.312;27.152;2022-07-24T03:17:34;100283.92;;;27.27;40.94
34658;BME280;20865;43.312;27.152;2022-07-24T03:20:02;100278.55;;;27.12;40.82
34658;BME280;20865;43.312;27.152;2022-07-24T03:22:30;100282.61;;;27.17;40.76
34658;BME280;20865;43.312;27.152;2022-07-24T03:24:58;100271.92;;;27.00;41.39
34658;BME280;20865;43.312;27.152;2022-07-24T03:27:27;100271.92;;;27.00;41.39
34658;BME280;20865;43.312;27.152;2022-07-24T03:29:54;100282.58;;;27.03;41.53
34658;BME280;20865;43.312;27.152;2022-07-24T03:32:22;100287.80;;;27.11;41.56
34658;BME280;20865;43.312;27.152;2022-07-24T03:34:49;100281.59;;;27.08;41.67
34658;BME280;20865;43.312;27.152;2022-07-24T03:37:17;100288.91;;;27.14;41.64
34658;BME280;20865;43.312;27.152;2022-07-24T03:39:45;100288.91;;;27.14;41.64
34658;BME280;20865;43.312;27.152;2022-07-24T03:42:13;100289.78;;;27.04;41.43
34658;BME280;20865;43.312;27.152;2022-07-24T03:44:40;100290.64;;;27.05;41.82
34658;BME280;20865;43.312;27.152;2022-07-24T03:47:08;100283.73;;;27.01;42.12
34658;BME280;20865;43.312;27.152;2022-07-24T03:49:36;100282.37;;;27.01;42.43
34658;BME280;20865;43.312;27.152;2022-07-24T03:52:04;100274.09;;;26.97;42.78
34658;BME280;20865;43.312;27.152;2022-07-24T03:54:32;100271.41;;;27.01;43.32
34658;BME280;20865;43.312;27.152;2022-07-24T03:56:59;100274.14;;;27.01;43.32
34658;BME280;20865;43.312;27.152;2022-07-24T03:59:27;100271.57;;;26.99;43.37
34658;BME280;20865;43.312;27.152;2022-07-24T04:01:55;100271.45;;;27.05;43.65
34658;BME280;20865;43.312;27.152;2022-07-24T04:04:22;100280.89;;;27.16;43.50
34658;BME280;20865;43.312;27.152;2022-07-24T04:06:50;100278.19;;;27.20;43.50
34658;BME280;20865;43.312;27.152;2022-07-24T04:09:18;100272.19;;;27.21;43.50
34658;BME280;20865;43.312;27.152;2022-07-24T04:11:45;100262.16;;;27.29;43.56
34658;BME280;20865;43.312;27.152;2022-07-24T04:14:13;100275.00;;;27.43;43.23
34658;BME280;20865;43.312;27.152;2022-07-24T04:16:41;100275.00;;;27.43;43.23
34658;BME280;20865;43.312;27.152;2022-07-24T04:19:08;100276.51;;;27.55;43.64
34658;BME280;20865;43.312;27.152;2022-07-24T04:21:36;100276.51;;;27.55;43.64
34658;BME280;20865;43.312;27.152;2022-07-24T04:24:04;100284.59;;;27.61;43.64
34658;BME280;20865;43.312;27.152;2022-07-24T04:26:32;100284.15;;;27.65;43.66
34658;BME280;20865;43.312;27.152;2022-07-24T04:29:00;100282.84;;;27.73;43.68
34658;BME280;20865;43.312;27.152;2022-07-24T04:31:28;100287.91;;;27.82;43.83
34658;BME280;20865;43.312;27.152;2022-07-24T04:33:55;100288.15;;;27.89;43.88
34658;BME280;20865;43.312;27.152;2022-07-24T04:36:23;100288.24;;;27.97;43.85
34658;BME280;20865;43.312;27.152;2022-07-24T04:38:51;100282.61;;;28.02;43.77
34658;BME280;20865;43.312;27.152;2022-07-24T04:41:19;100286.41;;;28.06;43.62
34658;BME280;20865;43.312;27.152;2022-07-24T04:43:47;100290.44;;;28.15;43.67
34658;BME280;20865;43.312;27.152;2022-07-24T04:46:16;100290.66;;;28.22;43.68
34658;BME280;20865;43.312;27.152;2022-07-24T04:48:45;100299.66;;;28.32;43.81
34658;BME280;20865;43.312;27.152;2022-07-24T04:51:12;100292.48;;;28.35;43.62
34658;BME280;20865;43.312;27.152;2022-07-24T04:53:40;100290.15;;;28.44;43.31
34658;BME280;20865;43.312;27.152;2022-07-24T04:56:08;100288.99;;;28.51;43.28
34658;BME280;20865;43.312;27.152;2022-07-24T04:58:35;100292.15;;;28.60;43.18
34658;BME280;20865;43.312;27.152;2022-07-24T05:01:03;100291.86;;;28.71;43.37
34658;BME280;20865;43.312;27.152;2022-07-24T05:03:31;100290.73;;;28.90;43.67
34658;BME280;20865;43.312;27.152;2022-07-24T05:05:58;100290.70;;;29.08;43.94
34658;BME280;20865;43.312;27.152;2022-07-24T05:08:26;100299.31;;;29.22;43.68
34658;BME280;20865;43.312;27.152;2022-07-24T05:10:53;100295.44;;;29.40;43.55
34658;BME280;20865;43.312;27.152;2022-07-24T05:13:21;100298.60;;;29.62;43.22
34658;BME280;20865;43.312;27.152;2022-07-24T05:15:49;100294.17;;;29.81;43.13
34658;BME280;20865;43.312;27.152;2022-07-24T05:18:16;100295.19;;;30.01;42.76
34658;BME280;20865;43.312;27.152;2022-07-24T05:20:44;100292.28;;;30.19;42.58
34658;BME280;20865;43.312;27.152;2022-07-24T05:23:11;100292.44;;;30.42;41.85
34658;BME280;20865;43.312;27.152;2022-07-24T05:25:39;100299.29;;;30.54;41.42
34658;BME280;20865;43.312;27.152;2022-07-24T05:28:07;100290.66;;;30.69;40.44
34658;BME280;20865;43.312;27.152;2022-07-24T05:30:34;100297.33;;;30.91;40.13
34658;BME280;20865;43.312;27.152;2022-07-24T05:33:02;100285.88;;;31.11;39.41
34658;BME280;20865;43.312;27.152;2022-07-24T05:35:30;100288.90;;;31.28;39.47
34658;BME280;20865;43.312;27.152;2022-07-24T05:37:58;100290.06;;;31.42;38.98
34658;BME280;20865;43.312;27.152;2022-07-24T05:40:25;100285.76;;;31.62;38.72
34658;BME280;20865;43.312;27.152;2022-07-24T05:42:53;100283.34;;;31.86;38.55
34658;BME280;20865;43.312;27.152;2022-07-24T05:45:21;100280.73;;;31.93;37.65
34658;BME280;20865;43.312;27.152;2022-07-24T05:47:49;100279.66;;;32.17;37.18
34658;BME280;20865;43.312;27.152;2022-07-24T05:50:17;100279.52;;;32.33;37.61
34658;BME280;20865;43.312;27.152;2022-07-24T05:52:44;100278.61;;;32.56;36.25
34658;BME280;20865;43.312;27.152;2022-07-24T05:55:12;100278.17;;;32.78;35.74
34658;BME280;20865;43.312;27.152;2022-07-24T05:57:40;100271.41;;;32.80;35.36
34658;BME280;20865;43.312;27.152;2022-07-24T06:00:08;100262.05;;;33.00;34.82
34658;BME280;20865;43.312;27.152;2022-07-24T06:02:36;100270.33;;;33.26;34.69
34658;BME280;20865;43.312;27.152;2022-07-24T06:05:04;100270.55;;;33.35;34.18
34658;BME280;20865;43.312;27.152;2022-07-24T06:07:32;100266.92;;;33.60;34.14
34658;BME280;20865;43.312;27.152;2022-07-24T06:10:00;100255.98;;;33.62;33.82
34658;BME280;20865;43.312;27.152;2022-07-24T06:12:27;100251.82;;;33.84;33.18
34658;BME280;20865;43.312;27.152;2022-07-24T06:14:55;100252.52;;;33.93;33.61
34658;BME280;20865;43.312;27.152;2022-07-24T06:17:22;100247.59;;;34.09;32.87
34658;BME280;20865;43.312;27.152;2022-07-24T06:19:50;100251.14;;;34.25;32.50
34658;BME280;20865;43.312;27.152;2022-07-24T06:22:18;100248.58;;;34.41;31.87
34658;BME280;20865;43.312;27.152;2022-07-24T06:24:45;100242.27;;;34.36;32.07
34658;BME280;20865;43.312;27.152;2022-07-24T06:27:13;100248.62;;;34.47;31.50
34658;BME280;20865;43.312;27.152;2022-07-24T06:29:42;100246.50;;;34.60;30.87
34658;BME280;20865;43.312;27.152;2022-07-24T06:32:09;100251.42;;;34.82;31.35
34658;BME280;20865;43.312;27.152;2022-07-24T06:34:37;100243.26;;;34.91;31.33
34658;BME280;20865;43.312;27.152;2022-07-24T06:37:05;100243.98;;;35.06;31.03
34658;BME280;20865;43.312;27.152;2022-07-24T06:39:32;100243.31;;;35.22;30.58
34658;BME280;20865;43.312;27.152;2022-07-24T06:42:00;100235.84;;;35.36;30.07
34658;BME280;20865;43.312;27.152;2022-07-24T06:44:28;100231.70;;;35.29;29.63
34658;BME280;20865;43.312;27.152;2022-07-24T06:46:55;100226.98;;;35.53;30.19
34658;BME280;20865;43.312;27.152;2022-07-24T06:49:23;100226.23;;;35.62;29.87
34658;BME280;20865;43.312;27.152;2022-07-24T06:51:51;100221.00;;;35.70;30.16
34658;BME280;20865;43.312;27.152;2022-07-24T06:54:18;100227.31;;;35.88;29.37
34658;BME280;20865;43.312;27.152;2022-07-24T06:56:46;100222.09;;;35.89;28.41
34658;BME280;20865;43.312;27.152;2022-07-24T06:59:13;100219.20;;;35.99;28.99
34658;BME280;20865;43.312;27.152;2022-07-24T07:01:41;100215.92;;;36.20;29.00
34658;BME280;20865;43.312;27.152;2022-07-24T07:04:09;100212.78;;;36.32;28.83
34658;BME280;20865;43.312;27.152;2022-07-24T07:06:38;100210.64;;;36.41;28.93
34658;BME280;20865;43.312;27.152;2022-07-24T07:09:05;100208.72;;;36.55;27.90
34658;BME280;20865;43.312;27.152;2022-07-24T07:11:33;100213.75;;;36.48;28.25
34658;BME280;20865;43.312;27.152;2022-07-24T07:14:01;100214.21;;;36.68;28.54
34658;BME280;20865;43.312;27.152;2022-07-24T07:16:28;100211.52;;;36.77;27.85
34658;BME280;20865;43.312;27.152;2022-07-24T07:18:56;100209.00;;;36.91;27.50
34658;BME280;20865;43.312;27.152;2022-07-24T07:21:24;100206.19;;;37.05;28.37
34658;BME280;20865;43.312;27.152;2022-07-24T07:23:51;100210.28;;;36.46;27.48
34658;BME280;20865;43.312;27.152;2022-07-24T07:26:19;100205.37;;;36.98;27.02
34658;BME280;20865;43.312;27.152;2022-07-24T07:28:47;100196.52;;;37.14;25.29
34658;BME280;20865;43.312;27.152;2022-07-24T07:31:15;100193.59;;;37.34;25.96
34658;BME280;20865;43.312;27.152;2022-07-24T07:33:42;100188.47;;;37.53;27.10
34658;BME280;20865;43.312;27.152;2022-07-24T07:36:10;100185.21;;;37.02;26.33
34658;BME280;20865;43.312;27.152;2022-07-24T07:38:38;100183.25;;;37.48;26.37
34658;BME280;20865;43.312;27.152;2022-07-24T07:41:06;100188.39;;;37.76;26.73
34658;BME280;20865;43.312;27.152;2022-07-24T07:43:34;100190.47;;;37.87;26.62
34658;BME280;20865;43.312;27.152;2022-07-24T07:46:01;100183.27;;;37.25;23.97
34658;BME280;20865;43.312;27.152;2022-07-24T07:48:29;100179.75;;;37.05;25.44
34658;BME280;20865;43.312;27.152;2022-07-24T07:50:57;100179.58;;;37.15;25.65
34658;BME280;20865;43.312;27.152;2022-07-24T07:53:25;100170.47;;;37.33;25.85
34658;BME280;20865;43.312;27.152;2022-07-24T07:55:52;100169.66;;;37.26;24.96
34658;BME280;20865;43.312;27.152;2022-07-24T07:58:20;100167.18;;;37.27;24.83
34658;BME280;20865;43.312;27.152;2022-07-24T08:00:50;100175.70;;;37.55;24.50
34658;BME280;20865;43.312;27.152;2022-07-24T08:03:18;100162.91;;;37.47;24.09
34658;BME280;20865;43.312;27.152;2022-07-24T08:05:46;100168.11;;;37.94;24.92
34658;BME280;20865;43.312;27.152;2022-07-24T08:08:14;100171.41;;;38.09;23.78
34658;BME280;20865;43.312;27.152;2022-07-24T08:10:42;100165.83;;;38.18;24.13
34658;BME280;20865;43.312;27.152;2022-07-24T08:13:10;100159.08;;;38.07;25.39
34658;BME280;20865;43.312;27.152;2022-07-24T08:15:39;100159.84;;;37.96;25.89
34658;BME280;20865;43.312;27.152;2022-07-24T08:18:06;100161.48;;;38.04;25.58
34658;BME280;20865;43.312;27.152;2022-07-24T08:20:34;100154.16;;;37.69;23.87
34658;BME280;20865;43.312;27.152;2022-07-24T08:23:02;100157.05;;;37.96;24.48
34658;BME280;20865;43.312;27.152;2022-07-24T08:25:30;100158.63;;;37.85;23.31
34658;BME280;20865;43.312;27.152;2022-07-24T08:27:58;100158.15;;;37.95;23.67
34658;BME280;20865;43.312;27.152;2022-07-24T08:30:26;100154.39;;;38.08;24.00
34658;BME280;20865;43.312;27.152;2022-07-24T08:32:54;100151.91;;;38.09;23.73
34658;BME280;20865;43.312;27.152;2022-07-24T08:35:21;100153.95;;;38.39;24.56
34658;BME280;20865;43.312;27.152;2022-07-24T08:37:50;100159.55;;;38.48;23.46
34658;BME280;20865;43.312;27.152;2022-07-24T08:40:17;100151.44;;;38.21;23.20
34658;BME280;20865;43.312;27.152;2022-07-24T08:42:45;100150.81;;;38.10;22.93
34658;BME280;20865;43.312;27.152;2022-07-24T08:45:13;100153.01;;;38.26;23.16
34658;BME280;20865;43.312;27.152;2022-07-24T08:47:42;100149.11;;;38.18;22.47
34658;BME280;20865;43.312;27.152;2022-07-24T08:50:10;100152.44;;;38.43;22.90
34658;BME280;20865;43.312;27.152;2022-07-24T08:52:38;100147.98;;;38.26;22.23
34658;BME280;20865;43.312;27.152;2022-07-24T08:55:07;100150.98;;;38.24;22.20
34658;BME280;20865;43.312;27.152;2022-07-24T08:57:34;100152.77;;;38.28;22.15
34658;BME280;20865;43.312;27.152;2022-07-24T09:00:03;100143.98;;;38.40;22.69
34658;BME280;20865;43.312;27.152;2022-07-24T09:02:31;100150.55;;;38.46;21.77
34658;BME280;20865;43.312;27.152;2022-07-24T09:05:00;100141.50;;;38.50;22.36
34658;BME280;20865;43.312;27.152;2022-07-24T09:07:30;100141.02;;;38.72;21.55
34658;BME280;20865;43.312;27.152;2022-07-24T09:10:03;100137.67;;;38.72;22.16
34658;BME280;20865;43.312;27.152;2022-07-24T09:12:34;100131.16;;;38.78;21.71
34658;BME280;20865;43.312;27.152;2022-07-24T09:15:10;100134.12;;;38.65;21.90
34658;BME280;20865;43.312;27.152;2022-07-24T09:17:31;100125.74;;;38.83;21.89
34658;BME280;20865;43.312;27.152;2022-07-24T09:20:00;100129.33;;;38.81;21.45
34658;BME280;20865;43.312;27.152;2022-07-24T09:22:37;100129.88;;;39.02;21.55
34658;BME280;20865;43.312;27.152;2022-07-24T09:25:19;100121.48;;;39.11;21.13
34658;BME280;20865;43.312;27.152;2022-07-24T09:27:57;100124.94;;;38.95;20.75
34658;BME280;20865;43.312;27.152;2022-07-24T09:30:27;100121.47;;;39.20;22.06
34658;BME280;20865;43.312;27.152;2022-07-24T09:32:57;100124.06;;;39.75;20.91
34658;BME280;20865;43.312;27.152;2022-07-24T09:35:34;100118.89;;;40.29;20.80
34658;BME280;20865;43.312;27.152;2022-07-24T09:38:02;100121.81;;;40.48;20.69
34658;BME280;20865;43.312;27.152;2022-07-24T09:40:40;100115.28;;;40.68;20.85
34658;BME280;20865;43.312;27.152;2022-07-24T09:43:15;100114.45;;;40.56;20.00
34658;BME280;20865;43.312;27.152;2022-07-24T09:46:09;100121.63;;;40.92;21.63
34658;BME280;20865;43.312;27.152;2022-07-24T09:48:39;100110.50;;;40.81;19.01
34658;BME280;20865;43.312;27.152;2022-07-24T09:51:12;100110.64;;;40.88;19.51
34658;BME280;20865;43.312;27.152;2022-07-24T09:53:43;100104.98;;;40.57;19.25
34658;BME280;20865;43.312;27.152;2022-07-24T09:56:11;100101.84;;;40.68;19.34
34658;BME280;20865;43.312;27.152;2022-07-24T09:58:47;100112.80;;;40.69;19.16
34658;BME280;20865;43.312;27.152;2022-07-24T10:01:10;100106.17;;;40.35;19.23
34658;BME280;20865;43.312;27.152;2022-07-24T10:03:40;100097.72;;;40.33;19.45
34658;BME280;20865;43.312;27.152;2022-07-24T10:06:10;100098.16;;;40.53;20.20
34658;BME280;20865;43.312;27.152;2022-07-24T10:08:40;100091.25;;;40.84;19.38
34658;BME280;20865;43.312;27.152;2022-07-24T10:11:08;100096.02;;;41.12;20.60
34658;BME280;20865;43.312;27.152;2022-07-24T10:13:37;100080.27;;;41.09;20.18
34658;BME280;20865;43.312;27.152;2022-07-24T10:19:01;100085.03;;;41.42;19.93
34658;BME280;20865;43.312;27.152;2022-07-24T10:21:31;100081.85;;;41.50;19.88
34658;BME280;20865;43.312;27.152;2022-07-24T10:24:10;100084.48;;;41.26;18.50
34658;BME280;20865;43.312;27.152;2022-07-24T10:26:49;100074.53;;;41.49;20.66
34658;BME280;20865;43.312;27.152;2022-07-24T10:29:21;100072.16;;;41.10;18.32
34658;BME280;20865;43.312;27.152;2022-07-24T10:31:52;100081.53;;;41.49;19.51
34658;BME280;20865;43.312;27.152;2022-07-24T10:34:39;100075.41;;;41.69;19.46
34658;BME280;20865;43.312;27.152;2022-07-24T10:42:26;100077.96;;;41.87;18.66
34658;BME280;20865;43.312;27.152;2022-07-24T10:47:45;100063.27;;;41.63;18.52
34658;BME280;20865;43.312;27.152;2022-07-24T10:50:13;100058.94;;;41.73;19.15
34658;BME280;20865;43.312;27.152;2022-07-24T10:52:41;100053.33;;;41.90;19.48
34658;BME280;20865;43.312;27.152;2022-07-24T10:55:29;100053.11;;;41.57;18.73
34658;BME280;20865;43.312;27.152;2022-07-24T10:58:15;100045.80;;;41.42;18.54
34658;BME280;20865;43.312;27.152;2022-07-24T11:00:50;100048.05;;;41.57;19.08
34658;BME280;20865;43.312;27.152;2022-07-24T11:03:23;100036.17;;;41.86;19.26
34658;BME280;20865;43.312;27.152;2022-07-24T11:06:11;100040.75;;;41.92;18.22
34658;BME280;20865;43.312;27.152;2022-07-24T11:11:21;100035.11;;;42.11;18.15
34658;BME280;20865;43.312;27.152;2022-07-24T11:13:55;100031.88;;;42.22;18.10
34658;BME280;20865;43.312;27.152;2022-07-24T11:16:21;100023.27;;;42.48;17.22
34658;BME280;20865;43.312;27.152;2022-07-24T11:21:38;100022.95;;;42.45;18.49
34658;BME280;20865;43.312;27.152;2022-07-24T11:24:18;100021.38;;;42.32;18.12
34658;BME280;20865;43.312;27.152;2022-07-24T11:27:07;100018.70;;;42.01;17.77
34658;BME280;20865;43.312;27.152;2022-07-24T11:29:37;100018.38;;;42.19;18.05
34658;BME280;20865;43.312;27.152;2022-07-24T11:32:10;100013.88;;;42.38;18.32
34658;BME280;20865;43.312;27.152;2022-07-24T11:34:45;100008.99;;;42.28;17.58
34658;BME280;20865;43.312;27.152;2022-07-24T11:37:13;100004.23;;;42.28;17.35
34658;BME280;20865;43.312;27.152;2022-07-24T11:39:43;100005.91;;;42.29;18.20
34658;BME280;20865;43.312;27.152;2022-07-24T11:42:14;99998.26;;;42.25;18.25
34658;BME280;20865;43.312;27.152;2022-07-24T11:44:44;99996.21;;;42.40;18.37
34658;BME280;20865;43.312;27.152;2022-07-24T11:49:46;99990.03;;;42.38;17.33
34658;BME280;20865;43.312;27.152;2022-07-24T11:52:23;99994.55;;;41.97;17.86
34658;BME280;20865;43.312;27.152;2022-07-24T11:54:55;99981.50;;;42.08;18.53
34658;BME280;20865;43.312;27.152;2022-07-24T11:57:31;99973.45;;;42.14;18.56
34658;BME280;20865;43.312;27.152;2022-07-24T11:59:59;99977.73;;;42.22;18.98
34658;BME280;20865;43.312;27.152;2022-07-24T12:02:27;99977.38;;;42.35;18.52
34658;BME280;20865;43.312;27.152;2022-07-24T12:04:54;99964.82;;;41.96;17.95
34658;BME280;20865;43.312;27.152;2022-07-24T12:07:25;99965.91;;;42.17;18.01
34658;BME280;20865;43.312;27.152;2022-07-24T12:12:25;99951.95;;;42.44;19.03
34658;BME280;20865;43.312;27.152;2022-07-24T12:15:02;99960.69;;;42.50;18.10
34658;BME280;20865;43.312;27.152;2022-07-24T12:17:31;99955.91;;;42.48;18.01
34658;BME280;20865;43.312;27.152;2022-07-24T12:20:01;99956.30;;;42.32;18.14
34658;BME280;20865;43.312;27.152;2022-07-24T12:22:30;99955.34;;;42.24;17.92
34658;BME280;20865;43.312;27.152;2022-07-24T12:24:59;99949.33;;;41.72;18.57
34658;BME280;20865;43.312;27.152;2022-07-24T12:27:41;99942.63;;;41.92;19.04
34658;BME280;20865;43.312;27.152;2022-07-24T12:30:30;99943.16;;;41.72;18.86
34658;BME280;20865;43.312;27.152;2022-07-24T12:33:06;99940.78;;;41.83;19.31
34658;BME280;20865;43.312;27.152;2022-07-24T12:38:30;99930.92;;;41.78;18.84
34658;BME280;20865;43.312;27.152;2022-07-24T12:43:31;99926.63;;;41.71;19.56
34658;BME280;20865;43.312;27.152;2022-07-24T12:46:06;99921.11;;;41.81;19.41
34658;BME280;20865;43.312;27.152;2022-07-24T12:48:33;99922.76;;;41.96;18.28
34658;BME280;20865;43.312;27.152;2022-07-24T12:51:06;99918.88;;;42.00;18.92
34658;BME280;20865;43.312;27.152;2022-07-24T12:53:39;99920.36;;;42.07;19.05
34658;BME280;20865;43.312;27.152;2022-07-24T12:56:10;99914.27;;;42.13;20.57
34658;BME280;20865;43.312;27.152;2022-07-24T12:58:55;99904.78;;;41.95;18.61
34658;BME280;20865;43.312;27.152;2022-07-24T13:01:25;99904.81;;;41.97;17.87
34658;BME280;20865;43.312;27.152;2022-07-24T13:04:02;99898.77;;;42.05;19.15
34658;BME280;20865;43.312;27.152;2022-07-24T13:06:34;99893.87;;;41.76;18.25
34658;BME280;20865;43.312;27.152;2022-07-24T13:09:04;99884.77;;;41.64;18.84
34658;BME280;20865;43.312;27.152;2022-07-24T13:11:32;99870.09;;;41.79;18.79
34658;BME280;20865;43.312;27.152;2022-07-24T13:13:59;99871.41;;;41.93;19.17
34658;BME280;20865;43.312;27.152;2022-07-24T13:16:31;99877.58;;;41.93;18.92